createdAt,value
2018-05-27T07:01:17.249Z,57.80
2018-05-27T07:09:02.669Z,58.00
2018-05-27T07:11:38.431Z,56.20
2018-05-27T07:14:15.651Z,55.10
2018-05-27T07:16:51.097Z,56.00
2018-05-27T07:19:25.150Z,56.40
2018-05-27T07:22:00.223Z,54.80
2018-05-27T07:24:35.315Z,53.30
2018-05-27T07:27:09.498Z,53.20
2018-05-27T07:29:44.666Z,53.40
2018-05-27T07:32:20.404Z,53.90
2018-05-27T07:34:54.604Z,54.20
2018-05-27T07:37:29.835Z,57.00
2018-05-27T07:40:04.114Z,57.30
2018-05-27T07:55:37.650Z,58.80
2018-05-27T07:58:11.932Z,59.40
2018-05-27T08:00:47.218Z,56.70
2018-05-27T08:03:21.513Z,57.20
2018-05-27T08:05:56.961Z,54.40
2018-05-27T08:08:32.118Z,55.00
2018-05-27T08:11:07.641Z,54.30
2018-05-27T08:13:41.857Z,54.70
2018-05-27T08:16:16.078Z,53.30
2018-05-27T08:18:50.389Z,51.80
2018-05-27T08:21:24.698Z,52.20
2018-05-27T08:23:58.823Z,51.30
2018-05-27T08:26:33.242Z,51.10
2018-05-27T08:29:07.512Z,51.10
2018-05-27T08:31:41.838Z,51.20
2018-05-27T08:34:16.884Z,51.30
2018-05-27T08:36:51.126Z,51.40
2018-05-27T08:39:25.403Z,49.10
2018-05-27T08:41:59.633Z,49.90
2018-05-27T08:44:33.887Z,50.50
2018-05-27T08:47:08.079Z,51.10
2018-05-27T08:49:42.215Z,50.50
2018-05-27T08:52:17.233Z,49.60
2018-05-27T08:54:51.529Z,49.50
2018-05-27T08:57:26.430Z,47.70
2018-05-27T09:00:00.787Z,47.60
2018-05-27T09:02:34.895Z,47.10
2018-05-27T09:05:09.218Z,47.50
2018-05-27T09:07:43.496Z,47.50
2018-05-27T09:10:17.837Z,48.10
2018-05-27T09:12:52.162Z,46.60
2018-05-27T09:15:26.611Z,45.90
2018-05-27T09:18:00.725Z,45.00
2018-05-27T09:20:35.005Z,45.00
2018-05-27T09:23:09.069Z,46.20
2018-05-27T09:25:43.250Z,42.30
2018-05-27T09:28:17.546Z,40.20
2018-05-27T09:30:51.847Z,41.50
2018-05-27T09:33:26.061Z,42.50
2018-05-27T09:36:00.372Z,40.60
2018-05-27T09:38:34.714Z,41.20
2018-05-27T09:41:08.912Z,39.60
2018-05-27T09:43:43.217Z,40.70
2018-05-27T09:46:18.078Z,40.00
2018-05-27T09:48:52.380Z,40.10
2018-05-27T09:51:26.762Z,40.10
2018-05-27T09:54:00.817Z,41.50
2018-05-27T09:56:34.939Z,41.00
2018-05-27T09:59:09.221Z,41.40
2018-05-27T10:01:43.550Z,42.00
2018-05-27T10:04:17.690Z,40.90
2018-05-27T10:09:28.476Z,40.20
2018-05-27T10:11:57.201Z,40.10
2018-05-27T10:14:26.158Z,40.10
2018-05-27T10:16:55.210Z,39.30
2018-05-27T10:19:23.389Z,40.20
2018-05-27T10:21:51.453Z,39.50
2018-05-27T10:24:19.440Z,39.90
2018-05-27T10:26:49.387Z,38.60
2018-05-27T10:29:17.405Z,38.00
2018-05-27T10:31:45.382Z,39.20
2018-05-27T10:34:13.358Z,39.20
2018-05-27T10:36:42.133Z,37.20
2018-05-27T10:39:10.155Z,37.10
2018-05-27T10:41:38.130Z,38.40
2018-05-27T10:44:06.103Z,35.90
2018-05-27T10:46:34.081Z,37.60
2018-05-27T10:49:02.371Z,34.80
2018-05-27T10:51:30.361Z,36.30
2018-05-27T10:53:59.100Z,35.80
2018-05-27T10:56:27.103Z,36.10
2018-05-27T10:58:55.177Z,34.50
2018-05-27T11:01:24.234Z,33.80
2018-05-27T11:03:52.539Z,33.70
2018-05-27T11:06:20.516Z,32.10
2018-05-27T11:08:49.993Z,33.60
2018-05-27T11:11:18.044Z,33.50
2018-05-27T11:13:45.988Z,34.90
2018-05-27T11:16:14.024Z,35.40
2018-05-27T11:18:42.001Z,35.30
2018-05-27T11:21:10.771Z,37.60
2018-05-27T11:23:39.698Z,37.40
2018-05-27T11:26:07.752Z,36.50
2018-05-27T11:28:36.609Z,38.20
2018-05-27T11:31:04.590Z,38.20
2018-05-27T11:33:32.558Z,37.30
2018-05-27T11:36:00.626Z,37.30
2018-05-27T11:38:30.127Z,38.60
2018-05-27T11:40:58.687Z,38.00
2018-05-27T11:43:26.696Z,38.10
2018-05-27T11:45:55.451Z,38.90
2018-05-27T11:48:23.434Z,38.90
2018-05-27T11:50:52.192Z,41.60
2018-05-27T11:53:20.168Z,41.50
2018-05-27T11:55:48.263Z,42.20
2018-05-27T11:58:17.109Z,42.50
2018-05-27T12:00:45.105Z,42.50
2018-05-27T12:03:13.078Z,42.20
2018-05-27T12:05:41.135Z,42.60
2018-05-27T12:08:09.403Z,43.40
2018-05-27T12:10:37.489Z,42.80
2018-05-27T12:13:05.553Z,44.50
2018-05-27T12:15:33.627Z,46.70
2018-05-27T12:18:01.596Z,50.00
2018-05-27T12:20:29.570Z,48.00
2018-05-27T12:22:58.874Z,50.80
2018-05-27T12:25:27.637Z,49.50
2018-05-27T12:27:55.734Z,49.40
2018-05-27T12:30:24.474Z,50.00
2018-05-27T12:32:52.488Z,50.00
2018-05-27T12:35:20.426Z,48.60
2018-05-27T12:37:48.496Z,49.90
2018-05-27T12:40:16.561Z,49.90
2018-05-27T12:42:44.680Z,49.90
2018-05-27T12:45:12.706Z,50.50
2018-05-27T12:47:40.784Z,52.10
2018-05-27T12:50:08.874Z,51.90
2018-05-27T12:52:37.738Z,52.40
2018-05-27T12:55:05.711Z,52.30
2018-05-27T12:57:33.743Z,52.00
2018-05-27T13:00:01.675Z,52.10
2018-05-27T13:02:30.647Z,53.50
2018-05-27T13:04:58.667Z,53.50
2018-05-27T13:07:27.814Z,60.70
2018-05-27T13:09:56.988Z,70.10
2018-05-27T13:12:26.203Z,70.20
